sensor_id;sensor_type;location;lat;lon;timestamp;P1;durP1;ratioP1;P2;durP2;ratioP2
42802;SDS011;28447;48.682;9.022;2023-03-31T04:00:56;11.07;;;4.67;;
42802;SDS011;28447;48.682;9.022;2023-03-31T04:03:22;9.10;;;4.47;;
42802;SDS011;28447;48.682;9.022;2023-03-31T04:05:48;5.97;;;4.43;;
42802;SDS011;28447;48.682;9.022;2023-03-31T04:08:14;7.50;;;4.87;;
42802;SDS011;28447;48.682;9.022;2023-03-31T04:10:44;6.37;;;4.20;;
42802;SDS011;28447;48.682;9.022;2023-03-31T04:13:12;11.50;;;4.17;;
42802;SDS011;28447;48.682;9.022;2023-03-31T04:15:42;11.77;;;4.47;;
42802;SDS011;28447;48.682;9.022;2023-03-31T04:18:08;13.60;;;5.17;;
42802;SDS011;28447;48.682;9.022;2023-03-31T04:20:36;22.03;;;5.60;;
42802;SDS011;28447;48.682;9.022;2023-03-31T04:23:02;8.90;;;6.27;;
42802;SDS011;28447;48.682;9.022;2023-03-31T04:25:29;10.80;;;5.10;;
42802;SDS011;28447;48.682;9.022;2023-03-31T04:27:55;12.20;;;6.27;;
42802;SDS011;28447;48.682;9.022;2023-03-31T04:30:21;11.33;;;7.10;;
42802;SDS011;28447;48.682;9.022;2023-03-31T04:32:56;7.70;;;5.17;;
42802;SDS011;28447;48.682;9.022;2023-03-31T04:35:25;9.60;;;6.13;;
42802;SDS011;28447;48.682;9.022;2023-03-31T04:37:52;17.30;;;5.90;;
42802;SDS011;28447;48.682;9.022;2023-03-31T04:40:22;6.53;;;4.97;;
42802;SDS011;28447;48.682;9.022;2023-03-31T04:42:49;11.60;;;5.40;;
42802;SDS011;28447;48.682;9.022;2023-03-31T04:45:15;13.97;;;5.57;;
42802;SDS011;28447;48.682;9.022;2023-03-31T04:47:42;9.77;;;5.60;;
42802;SDS011;28447;48.682;9.022;2023-03-31T04:50:09;11.83;;;5.03;;
42802;SDS011;28447;48.682;9.022;2023-03-31T04:52:36;13.20;;;5.40;;
42802;SDS011;28447;48.682;9.022;2023-03-31T04:55:02;10.00;;;5.43;;
42802;SDS011;28447;48.682;9.022;2023-03-31T04:57:29;15.73;;;5.30;;
42802;SDS011;28447;48.682;9.022;2023-03-31T04:59:54;15.40;;;6.23;;
42802;SDS011;28447;48.682;9.022;2023-03-31T05:02:20;14.77;;;8.70;;
42802;SDS011;28447;48.682;9.022;2023-03-31T05:04:48;14.10;;;7.07;;
42802;SDS011;28447;48.682;9.022;2023-03-31T05:07:14;19.90;;;8.60;;
42802;SDS011;28447;48.682;9.022;2023-03-31T05:09:41;11.60;;;6.53;;
42802;SDS011;28447;48.682;9.022;2023-03-31T05:12:08;9.33;;;5.50;;
42802;SDS011;28447;48.682;9.022;2023-03-31T05:14:33;9.50;;;5.63;;
42802;SDS011;28447;48.682;9.022;2023-03-31T05:16:59;9.70;;;5.53;;
42802;SDS011;28447;48.682;9.022;2023-03-31T05:19:25;14.97;;;5.70;;
42802;SDS011;28447;48.682;9.022;2023-03-31T05:21:50;7.53;;;5.50;;
42802;SDS011;28447;48.682;9.022;2023-03-31T05:24:16;12.00;;;6.20;;
42802;SDS011;28447;48.682;9.022;2023-03-31T05:26:42;10.87;;;6.47;;
42802;SDS011;28447;48.682;9.022;2023-03-31T05:29:13;13.10;;;6.40;;
42802;SDS011;28447;48.682;9.022;2023-03-31T05:31:40;22.47;;;7.40;;
42802;SDS011;28447;48.682;9.022;2023-03-31T05:34:06;17.37;;;11.70;;
42802;SDS011;28447;48.682;9.022;2023-03-31T05:36:34;14.60;;;9.53;;
42802;SDS011;28447;48.682;9.022;2023-03-31T05:39:03;17.27;;;9.10;;
42802;SDS011;28447;48.682;9.022;2023-03-31T05:41:31;13.60;;;8.00;;
42802;SDS011;28447;48.682;9.022;2023-03-31T05:43:57;14.20;;;7.97;;
42802;SDS011;28447;48.682;9.022;2023-03-31T05:46:27;13.70;;;7.33;;
42802;SDS011;28447;48.682;9.022;2023-03-31T05:48:53;17.87;;;7.77;;
42802;SDS011;28447;48.682;9.022;2023-03-31T05:51:21;13.37;;;7.80;;
42802;SDS011;28447;48.682;9.022;2023-03-31T05:53:47;16.60;;;7.30;;
42802;SDS011;28447;48.682;9.022;2023-03-31T05:56:13;15.73;;;7.37;;
42802;SDS011;28447;48.682;9.022;2023-03-31T05:58:40;15.77;;;8.00;;
42802;SDS011;28447;48.682;9.022;2023-03-31T06:01:07;16.70;;;7.13;;
42802;SDS011;28447;48.682;9.022;2023-03-31T06:03:35;15.80;;;6.63;;
42802;SDS011;28447;48.682;9.022;2023-03-31T06:06:03;15.40;;;7.40;;
42802;SDS011;28447;48.682;9.022;2023-03-31T06:08:29;11.43;;;7.40;;
42802;SDS011;28447;48.682;9.022;2023-03-31T06:10:56;15.60;;;7.37;;
42802;SDS011;28447;48.682;9.022;2023-03-31T06:13:22;12.90;;;6.97;;
42802;SDS011;28447;48.682;9.022;2023-03-31T06:15:55;9.83;;;6.90;;
42802;SDS011;28447;48.682;9.022;2023-03-31T06:18:22;12.23;;;7.53;;
42802;SDS011;28447;48.682;9.022;2023-03-31T06:20:47;13.63;;;7.00;;
42802;SDS011;28447;48.682;9.022;2023-03-31T06:23:13;13.30;;;7.00;;
42802;SDS011;28447;48.682;9.022;2023-03-31T06:25:39;13.60;;;6.60;;
42802;SDS011;28447;48.682;9.022;2023-03-31T06:28:06;12.00;;;5.97;;
42802;SDS011;28447;48.682;9.022;2023-03-31T06:30:32;11.80;;;6.70;;
42802;SDS011;28447;48.682;9.022;2023-03-31T06:33:00;11.00;;;7.20;;
42802;SDS011;28447;48.682;9.022;2023-03-31T06:35:25;14.00;;;7.27;;
42802;SDS011;28447;48.682;9.022;2023-03-31T06:37:51;11.10;;;7.43;;
42802;SDS011;28447;48.682;9.022;2023-03-31T06:40:18;15.37;;;7.20;;
42802;SDS011;28447;48.682;9.022;2023-03-31T06:42:44;14.63;;;7.70;;
42802;SDS011;28447;48.682;9.022;2023-03-31T06:45:09;10.80;;;6.30;;
42802;SDS011;28447;48.682;9.022;2023-03-31T06:47:35;14.70;;;8.10;;
42802;SDS011;28447;48.682;9.022;2023-03-31T06:50:05;11.60;;;7.27;;
42802;SDS011;28447;48.682;9.022;2023-03-31T06:52:35;15.17;;;8.50;;
42802;SDS011;28447;48.682;9.022;2023-03-31T06:55:00;11.80;;;7.47;;
42802;SDS011;28447;48.682;9.022;2023-03-31T06:57:27;15.77;;;8.13;;
42802;SDS011;28447;48.682;9.022;2023-03-31T06:59:59;14.13;;;8.70;;
42802;SDS011;28447;48.682;9.022;2023-03-31T07:02:25;19.10;;;9.00;;
42802;SDS011;28447;48.682;9.022;2023-03-31T07:04:51;13.47;;;7.67;;
42802;SDS011;28447;48.682;9.022;2023-03-31T07:07:16;10.10;;;5.80;;
42802;SDS011;28447;48.682;9.022;2023-03-31T07:09:43;8.87;;;5.43;;
42802;SDS011;28447;48.682;9.022;2023-03-31T07:12:09;9.70;;;5.70;;
42802;SDS011;28447;48.682;9.022;2023-03-31T07:14:35;6.90;;;5.57;;
42802;SDS011;28447;48.682;9.022;2023-03-31T07:17:02;9.13;;;6.40;;
42802;SDS011;28447;48.682;9.022;2023-03-31T07:19:27;6.53;;;4.13;;
42802;SDS011;28447;48.682;9.022;2023-03-31T07:21:54;7.00;;;4.33;;
42802;SDS011;28447;48.682;9.022;2023-03-31T07:24:20;9.40;;;4.00;;
42802;SDS011;28447;48.682;9.022;2023-03-31T07:26:46;6.87;;;3.33;;
42802;SDS011;28447;48.682;9.022;2023-03-31T07:29:12;4.70;;;3.23;;
42802;SDS011;28447;48.682;9.022;2023-03-31T07:31:37;8.73;;;2.87;;
42802;SDS011;28447;48.682;9.022;2023-03-31T07:34:03;3.40;;;2.20;;
42802;SDS011;28447;48.682;9.022;2023-03-31T07:36:29;3.40;;;2.20;;
42802;SDS011;28447;48.682;9.022;2023-03-31T07:38:55;3.50;;;2.10;;
42802;SDS011;28447;48.682;9.022;2023-03-31T07:41:21;4.70;;;2.10;;
42802;SDS011;28447;48.682;9.022;2023-03-31T07:43:48;3.47;;;1.87;;
42802;SDS011;28447;48.682;9.022;2023-03-31T07:46:17;4.67;;;1.80;;
42802;SDS011;28447;48.682;9.022;2023-03-31T07:48:51;7.83;;;2.00;;
42802;SDS011;28447;48.682;9.022;2023-03-31T07:51:20;3.43;;;1.83;;
42802;SDS011;28447;48.682;9.022;2023-03-31T07:53:49;4.00;;;2.40;;
42802;SDS011;28447;48.682;9.022;2023-03-31T07:56:17;2.90;;;1.70;;
42802;SDS011;28447;48.682;9.022;2023-03-31T07:58:47;5.70;;;2.37;;
42802;SDS011;28447;48.682;9.022;2023-03-31T08:01:17;3.27;;;2.17;;
42802;SDS011;28447;48.682;9.022;2023-03-31T08:03:45;2.77;;;1.83;;
42802;SDS011;28447;48.682;9.022;2023-03-31T08:06:22;4.37;;;2.00;;
42802;SDS011;28447;48.682;9.022;2023-03-31T08:08:49;2.07;;;1.63;;
42802;SDS011;28447;48.682;9.022;2023-03-31T08:11:15;4.40;;;1.83;;
42802;SDS011;28447;48.682;9.022;2023-03-31T08:13:41;3.00;;;1.77;;
42802;SDS011;28447;48.682;9.022;2023-03-31T08:16:07;3.63;;;2.23;;
42802;SDS011;28447;48.682;9.022;2023-03-31T08:18:33;2.33;;;1.90;;
42802;SDS011;28447;48.682;9.022;2023-03-31T08:20:59;2.93;;;1.63;;
42802;SDS011;28447;48.682;9.022;2023-03-31T08:23:24;2.30;;;2.10;;
42802;SDS011;28447;48.682;9.022;2023-03-31T08:25:50;3.57;;;2.07;;
42802;SDS011;28447;48.682;9.022;2023-03-31T08:28:16;5.20;;;2.20;;
42802;SDS011;28447;48.682;9.022;2023-03-31T08:30:42;3.87;;;2.23;;
42802;SDS011;28447;48.682;9.022;2023-03-31T08:33:09;3.17;;;2.07;;
42802;SDS011;28447;48.682;9.022;2023-03-31T08:35:37;3.37;;;1.80;;
42802;SDS011;28447;48.682;9.022;2023-03-31T08:38:03;4.90;;;3.17;;
42802;SDS011;28447;48.682;9.022;2023-03-31T08:40:29;2.67;;;1.90;;
42802;SDS011;28447;48.682;9.022;2023-03-31T08:42:59;2.00;;;1.80;;
42802;SDS011;28447;48.682;9.022;2023-03-31T08:45:48;4.33;;;1.73;;
42802;SDS011;28447;48.682;9.022;2023-03-31T08:48:21;4.00;;;2.30;;
42802;SDS011;28447;48.682;9.022;2023-03-31T08:50:52;3.10;;;1.73;;
42802;SDS011;28447;48.682;9.022;2023-03-31T08:53:26;1.87;;;1.63;;
42802;SDS011;28447;48.682;9.022;2023-03-31T08:55:55;2.30;;;1.87;;
42802;SDS011;28447;48.682;9.022;2023-03-31T09:07:01;2.47;;;1.77;;
42802;SDS011;28447;48.682;9.022;2023-03-31T09:12:47;2.97;;;1.80;;
42802;SDS011;28447;48.682;9.022;2023-03-31T09:18:38;5.70;;;2.10;;
42802;SDS011;28447;48.682;9.022;2023-03-31T09:23:38;5.30;;;1.63;;
42802;SDS011;28447;48.682;9.022;2023-03-31T09:29:06;2.80;;;1.90;;
42802;SDS011;28447;48.682;9.022;2023-03-31T09:31:43;2.70;;;1.90;;
42802;SDS011;28447;48.682;9.022;2023-03-31T09:34:24;2.30;;;1.80;;
42802;SDS011;28447;48.682;9.022;2023-03-31T09:36:53;3.93;;;1.70;;
42802;SDS011;28447;48.682;9.022;2023-03-31T09:39:19;2.47;;;1.53;;
42802;SDS011;28447;48.682;9.022;2023-03-31T09:41:45;2.47;;;1.90;;
42802;SDS011;28447;48.682;9.022;2023-03-31T09:44:58;3.60;;;1.70;;
42802;SDS011;28447;48.682;9.022;2023-03-31T09:47:14;3.90;;;2.27;;
42802;SDS011;28447;48.682;9.022;2023-03-31T09:50:03;5.47;;;1.97;;
42802;SDS011;28447;48.682;9.022;2023-03-31T09:54:58;6.23;;;1.90;;
42802;SDS011;28447;48.682;9.022;2023-03-31T10:00:00;6.60;;;2.13;;
42802;SDS011;28447;48.682;9.022;2023-03-31T10:02:34;3.93;;;1.80;;
42802;SDS011;28447;48.682;9.022;2023-03-31T10:05:03;3.00;;;1.87;;
42802;SDS011;28447;48.682;9.022;2023-03-31T10:07:33;5.03;;;2.37;;
42802;SDS011;28447;48.682;9.022;2023-03-31T10:09:59;2.87;;;1.83;;
42802;SDS011;28447;48.682;9.022;2023-03-31T10:12:28;4.40;;;2.23;;
42802;SDS011;28447;48.682;9.022;2023-03-31T10:15:29;5.73;;;1.83;;
42802;SDS011;28447;48.682;9.022;2023-03-31T10:17:52;2.40;;;1.77;;
42802;SDS011;28447;48.682;9.022;2023-03-31T10:23:02;10.70;;;2.60;;
42802;SDS011;28447;48.682;9.022;2023-03-31T10:25:40;6.47;;;2.50;;
42802;SDS011;28447;48.682;9.022;2023-03-31T10:28:09;6.00;;;2.00;;
42802;SDS011;28447;48.682;9.022;2023-03-31T10:30:39;5.90;;;2.00;;
42802;SDS011;28447;48.682;9.022;2023-03-31T10:33:13;5.63;;;2.60;;
42802;SDS011;28447;48.682;9.022;2023-03-31T10:35:43;6.33;;;1.93;;
42802;SDS011;28447;48.682;9.022;2023-03-31T10:38:10;4.83;;;1.67;;
42802;SDS011;28447;48.682;9.022;2023-03-31T10:40:50;7.07;;;3.03;;
42802;SDS011;28447;48.682;9.022;2023-03-31T10:43:19;7.07;;;2.20;;
42802;SDS011;28447;48.682;9.022;2023-03-31T10:46:10;4.43;;;1.93;;
42802;SDS011;28447;48.682;9.022;2023-03-31T10:48:37;6.23;;;2.53;;
42802;SDS011;28447;48.682;9.022;2023-03-31T10:53:41;3.10;;;2.00;;
42802;SDS011;28447;48.682;9.022;2023-03-31T11:07:12;7.20;;;2.20;;
42802;SDS011;28447;48.682;9.022;2023-03-31T11:20:44;8.80;;;1.90;;
42802;SDS011;28447;48.682;9.022;2023-03-31T11:30:45;1.60;;;1.03;;
42802;SDS011;28447;48.682;9.022;2023-03-31T11:35:47;4.13;;;1.73;;
42802;SDS011;28447;48.682;9.022;2023-03-31T11:46:10;3.30;;;1.20;;
42802;SDS011;28447;48.682;9.022;2023-03-31T11:51:05;3.70;;;0.97;;
42802;SDS011;28447;48.682;9.022;2023-03-31T11:53:34;2.70;;;1.23;;
42802;SDS011;28447;48.682;9.022;2023-03-31T11:56:01;2.07;;;1.07;;
42802;SDS011;28447;48.682;9.022;2023-03-31T11:58:34;1.20;;;1.00;;
42802;SDS011;28447;48.682;9.022;2023-03-31T12:04:10;1.80;;;1.00;;
42802;SDS011;28447;48.682;9.022;2023-03-31T12:06:40;2.50;;;1.00;;
42802;SDS011;28447;48.682;9.022;2023-03-31T12:11:41;1.10;;;0.90;;
42802;SDS011;28447;48.682;9.022;2023-03-31T12:14:15;1.77;;;1.10;;
42802;SDS011;28447;48.682;9.022;2023-03-31T12:16:47;3.60;;;1.93;;
42802;SDS011;28447;48.682;9.022;2023-03-31T12:22:09;2.00;;;1.10;;
42802;SDS011;28447;48.682;9.022;2023-03-31T12:24:36;1.70;;;1.27;;
42802;SDS011;28447;48.682;9.022;2023-03-31T12:27:13;1.70;;;1.00;;
42802;SDS011;28447;48.682;9.022;2023-03-31T12:29:46;1.97;;;1.17;;
42802;SDS011;28447;48.682;9.022;2023-03-31T12:32:18;1.60;;;1.07;;
42802;SDS011;28447;48.682;9.022;2023-03-31T12:34:50;1.53;;;0.90;;
42802;SDS011;28447;48.682;9.022;2023-03-31T12:37:46;1.60;;;1.17;;
42802;SDS011;28447;48.682;9.022;2023-03-31T12:40:33;2.10;;;1.10;;
42802;SDS011;28447;48.682;9.022;2023-03-31T12:43:16;4.80;;;1.40;;
42802;SDS011;28447;48.682;9.022;2023-03-31T12:57:33;2.23;;;1.30;;
42802;SDS011;28447;48.682;9.022;2023-03-31T13:02:48;3.37;;;1.70;;
42802;SDS011;28447;48.682;9.022;2023-03-31T13:08:06;5.87;;;1.33;;
42802;SDS011;28447;48.682;9.022;2023-03-31T13:10:33;3.03;;;1.60;;
42802;SDS011;28447;48.682;9.022;2023-03-31T13:13:21;4.97;;;1.93;;
42802;SDS011;28447;48.682;9.022;2023-03-31T13:15:54;4.17;;;1.83;;
42802;SDS011;28447;48.682;9.022;2023-03-31T13:18:21;3.97;;;1.60;;
42802;SDS011;28447;48.682;9.022;2023-03-31T13:20:57;8.50;;;2.03;;
42802;SDS011;28447;48.682;9.022;2023-03-31T13:23:25;6.60;;;2.10;;
42802;SDS011;28447;48.682;9.022;2023-03-31T13:25:56;2.97;;;1.60;;
42802;SDS011;28447;48.682;9.022;2023-03-31T13:28:24;3.90;;;1.60;;
42802;SDS011;28447;48.682;9.022;2023-03-31T13:30:56;3.23;;;1.30;;
42802;SDS011;28447;48.682;9.022;2023-03-31T13:36:34;2.63;;;1.30;;
42802;SDS011;28447;48.682;9.022;2023-03-31T13:52:00;1.90;;;0.97;;
42802;SDS011;28447;48.682;9.022;2023-03-31T14:08:09;1.33;;;1.10;;
42802;SDS011;28447;48.682;9.022;2023-03-31T14:10:37;2.07;;;1.00;;
42802;SDS011;28447;48.682;9.022;2023-03-31T14:13:13;1.20;;;1.00;;
42802;SDS011;28447;48.682;9.022;2023-03-31T14:18:09;1.17;;;0.87;;
42802;SDS011;28447;48.682;9.022;2023-03-31T14:20:41;1.03;;;0.93;;
42802;SDS011;28447;48.682;9.022;2023-03-31T14:23:30;1.00;;;0.90;;
42802;SDS011;28447;48.682;9.022;2023-03-31T14:37:37;1.67;;;1.10;;
42802;SDS011;28447;48.682;9.022;2023-03-31T14:40:04;1.97;;;0.90;;
42802;SDS011;28447;48.682;9.022;2023-03-31T14:42:39;1.70;;;1.10;;
42802;SDS011;28447;48.682;9.022;2023-03-31T14:45:22;1.60;;;0.90;;
42802;SDS011;28447;48.682;9.022;2023-03-31T14:48:02;3.63;;;1.30;;
42802;SDS011;28447;48.682;9.022;2023-03-31T14:50:48;3.40;;;1.10;;
42802;SDS011;28447;48.682;9.022;2023-03-31T14:53:16;6.87;;;1.67;;
42802;SDS011;28447;48.682;9.022;2023-03-31T14:55:46;1.40;;;1.23;;
42802;SDS011;28447;48.682;9.022;2023-03-31T14:58:13;1.13;;;1.00;;
42802;SDS011;28447;48.682;9.022;2023-03-31T15:00:49;2.43;;;1.30;;
42802;SDS011;28447;48.682;9.022;2023-03-31T15:03:17;2.60;;;1.30;;
42802;SDS011;28447;48.682;9.022;2023-03-31T15:05:43;1.90;;;1.10;;
42802;SDS011;28447;48.682;9.022;2023-03-31T15:08:15;1.57;;;1.20;;
42802;SDS011;28447;48.682;9.022;2023-03-31T15:10:44;3.63;;;1.30;;
42802;SDS011;28447;48.682;9.022;2023-03-31T15:13:18;2.30;;;1.17;;
42802;SDS011;28447;48.682;9.022;2023-03-31T15:15:49;4.20;;;1.13;;
42802;SDS011;28447;48.682;9.022;2023-03-31T15:18:15;3.67;;;2.23;;
42802;SDS011;28447;48.682;9.022;2023-03-31T15:20:42;2.10;;;1.30;;
42802;SDS011;28447;48.682;9.022;2023-03-31T15:25:48;1.90;;;1.20;;
42802;SDS011;28447;48.682;9.022;2023-03-31T15:28:23;1.50;;;1.40;;
42802;SDS011;28447;48.682;9.022;2023-03-31T15:30:53;1.70;;;1.10;;
42802;SDS011;28447;48.682;9.022;2023-03-31T15:33:30;3.00;;;1.27;;
42802;SDS011;28447;48.682;9.022;2023-03-31T15:35:59;3.00;;;1.27;;
42802;SDS011;28447;48.682;9.022;2023-03-31T15:38:26;4.67;;;1.40;;
42802;SDS011;28447;48.682;9.022;2023-03-31T15:40:55;1.70;;;1.10;;
42802;SDS011;28447;48.682;9.022;2023-03-31T15:43:30;3.53;;;1.67;;
42802;SDS011;28447;48.682;9.022;2023-03-31T15:46:08;2.03;;;1.20;;
42802;SDS011;28447;48.682;9.022;2023-03-31T15:48:57;2.30;;;1.40;;
42802;SDS011;28447;48.682;9.022;2023-03-31T15:51:40;1.90;;;1.10;;
42802;SDS011;28447;48.682;9.022;2023-03-31T15:56:58;2.23;;;1.20;;
42802;SDS011;28447;48.682;9.022;2023-03-31T15:59:26;2.47;;;1.20;;
42802;SDS011;28447;48.682;9.022;2023-03-31T16:01:53;5.13;;;1.50;;
42802;SDS011;28447;48.682;9.022;2023-03-31T16:04:21;3.57;;;1.27;;
42802;SDS011;28447;48.682;9.022;2023-03-31T16:06:56;3.17;;;1.30;;
42802;SDS011;28447;48.682;9.022;2023-03-31T16:09:50;1.77;;;1.27;;
42802;SDS011;28447;48.682;9.022;2023-03-31T16:12:21;2.67;;;1.20;;
42802;SDS011;28447;48.682;9.022;2023-03-31T16:17:56;2.77;;;1.50;;
42802;SDS011;28447;48.682;9.022;2023-03-31T16:20:27;4.00;;;1.80;;
42802;SDS011;28447;48.682;9.022;2023-03-31T16:23:02;2.17;;;1.40;;
42802;SDS011;28447;48.682;9.022;2023-03-31T16:25:38;4.23;;;1.80;;
42802;SDS011;28447;48.682;9.022;2023-03-31T16:28:05;2.87;;;1.30;;
42802;SDS011;28447;48.682;9.022;2023-03-31T16:30:39;3.63;;;1.50;;
42802;SDS011;28447;48.682;9.022;2023-03-31T16:33:07;1.57;;;1.07;;
42802;SDS011;28447;48.682;9.022;2023-03-31T16:35:40;1.80;;;1.30;;
42802;SDS011;28447;48.682;9.022;2023-03-31T16:38:08;3.77;;;1.27;;
42802;SDS011;28447;48.682;9.022;2023-03-31T16:40:37;2.00;;;1.37;;
42802;SDS011;28447;48.682;9.022;2023-03-31T16:45:51;3.80;;;1.80;;
42802;SDS011;28447;48.682;9.022;2023-03-31T16:48:18;2.40;;;1.10;;
42802;SDS011;28447;48.682;9.022;2023-03-31T16:50:49;1.63;;;1.33;;
42802;SDS011;28447;48.682;9.022;2023-03-31T16:53:20;2.90;;;1.30;;
42802;SDS011;28447;48.682;9.022;2023-03-31T16:55:48;2.70;;;1.40;;
42802;SDS011;28447;48.682;9.022;2023-03-31T16:58:14;2.37;;;1.30;;
42802;SDS011;28447;48.682;9.022;2023-03-31T17:00:41;1.93;;;1.30;;
42802;SDS011;28447;48.682;9.022;2023-03-31T17:03:08;3.77;;;1.30;;
42802;SDS011;28447;48.682;9.022;2023-03-31T17:05:38;1.90;;;1.23;;
42802;SDS011;28447;48.682;9.022;2023-03-31T17:08:06;1.80;;;1.40;;
42802;SDS011;28447;48.682;9.022;2023-03-31T17:10:34;3.47;;;1.10;;
42802;SDS011;28447;48.682;9.022;2023-03-31T17:13:00;3.40;;;1.30;;
42802;SDS011;28447;48.682;9.022;2023-03-31T17:15:26;2.47;;;1.37;;
42802;SDS011;28447;48.682;9.022;2023-03-31T17:17:54;3.67;;;1.20;;
42802;SDS011;28447;48.682;9.022;2023-03-31T17:20:20;6.80;;;1.30;;
42802;SDS011;28447;48.682;9.022;2023-03-31T17:22:47;3.43;;;1.27;;
42802;SDS011;28447;48.682;9.022;2023-03-31T17:25:12;3.70;;;1.50;;
42802;SDS011;28447;48.682;9.022;2023-03-31T17:27:40;3.10;;;1.30;;
42802;SDS011;28447;48.682;9.022;2023-03-31T17:30:06;1.80;;;1.20;;
42802;SDS011;28447;48.682;9.022;2023-03-31T17:32:34;3.10;;;1.77;;
42802;SDS011;28447;48.682;9.022;2023-03-31T17:35:01;9.63;;;3.60;;
42802;SDS011;28447;48.682;9.022;2023-03-31T17:37:27;4.53;;;2.93;;
42802;SDS011;28447;48.682;9.022;2023-03-31T17:39:54;7.80;;;2.10;;
42802;SDS011;28447;48.682;9.022;2023-03-31T17:42:21;9.30;;;3.17;;
42802;SDS011;28447;48.682;9.022;2023-03-31T17:44:48;3.30;;;1.40;;
42802;SDS011;28447;48.682;9.022;2023-03-31T17:47:16;3.57;;;2.40;;
42802;SDS011;28447;48.682;9.022;2023-03-31T17:49:42;2.40;;;1.87;;
42802;SDS011;28447;48.682;9.022;2023-03-31T17:52:08;2.00;;;1.40;;
42802;SDS011;28447;48.682;9.022;2023-03-31T17:54:34;3.33;;;1.60;;
42802;SDS011;28447;48.682;9.022;2023-03-31T17:57:00;3.97;;;1.60;;
42802;SDS011;28447;48.682;9.022;2023-03-31T17:59:27;1.70;;;1.50;;
42802;SDS011;28447;48.682;9.022;2023-03-31T18:01:53;2.20;;;1.60;;
42802;SDS011;28447;48.682;9.022;2023-03-31T18:04:20;5.80;;;1.70;;
42802;SDS011;28447;48.682;9.022;2023-03-31T18:06:46;6.83;;;2.07;;
42802;SDS011;28447;48.682;9.022;2023-03-31T18:09:12;5.83;;;2.00;;
42802;SDS011;28447;48.682;9.022;2023-03-31T18:11:38;4.03;;;1.83;;
42802;SDS011;28447;48.682;9.022;2023-03-31T18:14:04;5.87;;;2.30;;
42802;SDS011;28447;48.682;9.022;2023-03-31T18:16:31;4.10;;;2.30;;
42802;SDS011;28447;48.682;9.022;2023-03-31T18:18:58;2.43;;;1.90;;
42802;SDS011;28447;48.682;9.022;2023-03-31T18:21:26;2.93;;;1.47;;
42802;SDS011;28447;48.682;9.022;2023-03-31T18:23:52;3.80;;;1.80;;
42802;SDS011;28447;48.682;9.022;2023-03-31T18:26:19;4.20;;;1.57;;
42802;SDS011;28447;48.682;9.022;2023-03-31T18:28:47;2.60;;;1.87;;
42802;SDS011;28447;48.682;9.022;2023-03-31T18:31:14;2.40;;;1.70;;
42802;SDS011;28447;48.682;9.022;2023-03-31T18:33:41;2.57;;;1.60;;
42802;SDS011;28447;48.682;9.022;2023-03-31T18:36:07;3.20;;;1.70;;
42802;SDS011;28447;48.682;9.022;2023-03-31T18:38:39;2.00;;;1.53;;
42802;SDS011;28447;48.682;9.022;2023-03-31T18:41:06;6.93;;;2.53;;
42802;SDS011;28447;48.682;9.022;2023-03-31T18:43:34;2.80;;;1.70;;
42802;SDS011;28447;48.682;9.022;2023-03-31T18:45:59;5.70;;;2.37;;
42802;SDS011;28447;48.682;9.022;2023-03-31T18:48:25;4.90;;;2.80;;
42802;SDS011;28447;48.682;9.022;2023-03-31T18:50:52;8.50;;;1.90;;
42802;SDS011;28447;48.682;9.022;2023-03-31T18:53:19;6.40;;;2.20;;
42802;SDS011;28447;48.682;9.022;2023-03-31T18:55:49;5.60;;;2.10;;
42802;SDS011;28447;48.682;9.022;2023-03-31T18:58:16;2.37;;;1.30;;
42802;SDS011;28447;48.682;9.022;2023-03-31T19:00:42;7.40;;;2.00;;
42802;SDS011;28447;48.682;9.022;2023-03-31T19:03:09;5.07;;;2.30;;
42802;SDS011;28447;48.682;9.022;2023-03-31T19:05:34;6.20;;;1.77;;
42802;SDS011;28447;48.682;9.022;2023-03-31T19:08:01;5.37;;;2.00;;
42802;SDS011;28447;48.682;9.022;2023-03-31T19:10:27;3.77;;;1.60;;
42802;SDS011;28447;48.682;9.022;2023-03-31T19:12:52;5.60;;;2.33;;
42802;SDS011;28447;48.682;9.022;2023-03-31T19:15:18;6.77;;;3.10;;
42802;SDS011;28447;48.682;9.022;2023-03-31T19:17:46;4.47;;;2.33;;
42802;SDS011;28447;48.682;9.022;2023-03-31T19:20:12;11.60;;;2.70;;
42802;SDS011;28447;48.682;9.022;2023-03-31T19:22:42;1.87;;;1.33;;
42802;SDS011;28447;48.682;9.022;2023-03-31T19:25:09;4.30;;;2.00;;
42802;SDS011;28447;48.682;9.022;2023-03-31T19:27:35;3.90;;;1.50;;
42802;SDS011;28447;48.682;9.022;2023-03-31T19:30:01;7.90;;;2.13;;
42802;SDS011;28447;48.682;9.022;2023-03-31T19:32:28;3.40;;;1.63;;
42802;SDS011;28447;48.682;9.022;2023-03-31T19:34:54;6.93;;;2.00;;
42802;SDS011;28447;48.682;9.022;2023-03-31T19:37:20;2.90;;;1.70;;
42802;SDS011;28447;48.682;9.022;2023-03-31T19:39:46;3.60;;;1.70;;
42802;SDS011;28447;48.682;9.022;2023-03-31T19:42:12;9.43;;;2.33;;
42802;SDS011;28447;48.682;9.022;2023-03-31T19:44:42;4.00;;;1.80;;
42802;SDS011;28447;48.682;9.022;2023-03-31T19:47:09;3.87;;;1.80;;
42802;SDS011;28447;48.682;9.022;2023-03-31T19:49:36;5.30;;;1.60;;
42802;SDS011;28447;48.682;9.022;2023-03-31T19:52:02;3.07;;;1.70;;
42802;SDS011;28447;48.682;9.022;2023-03-31T19:54:29;3.37;;;1.80;;
42802;SDS011;28447;48.682;9.022;2023-03-31T19:56:54;2.70;;;1.40;;
42802;SDS011;28447;48.682;9.022;2023-03-31T19:59:23;4.97;;;1.60;;
42802;SDS011;28447;48.682;9.022;2023-03-31T20:01:49;7.33;;;2.43;;
42802;SDS011;28447;48.682;9.022;2023-03-31T20:04:15;7.20;;;2.10;;
42802;SDS011;28447;48.682;9.022;2023-03-31T20:06:42;8.27;;;1.60;;
42802;SDS011;28447;48.682;9.022;2023-03-31T20:09:15;6.20;;;1.97;;
42802;SDS011;28447;48.682;9.022;2023-03-31T20:11:44;12.53;;;1.90;;
42802;SDS011;28447;48.682;9.022;2023-03-31T20:14:09;2.90;;;1.83;;
42802;SDS011;28447;48.682;9.022;2023-03-31T20:16:36;2.77;;;1.70;;
42802;SDS011;28447;48.682;9.022;2023-03-31T20:19:02;8.00;;;2.23;;
42802;SDS011;28447;48.682;9.022;2023-03-31T20:21:31;5.10;;;2.00;;
42802;SDS011;28447;48.682;9.022;2023-03-31T20:23:59;4.90;;;1.90;;
42802;SDS011;28447;48.682;9.022;2023-03-31T20:26:26;8.33;;;2.10;;
42802;SDS011;28447;48.682;9.022;2023-03-31T20:28:57;2.90;;;2.03;;
42802;SDS011;28447;48.682;9.022;2023-03-31T20:31:26;10.33;;;2.40;;
42802;SDS011;28447;48.682;9.022;2023-03-31T20:33:54;6.23;;;2.00;;
42802;SDS011;28447;48.682;9.022;2023-03-31T20:36:22;3.47;;;1.57;;
42802;SDS011;28447;48.682;9.022;2023-03-31T20:38:52;2.50;;;1.50;;
42802;SDS011;28447;48.682;9.022;2023-03-31T20:41:21;5.10;;;1.90;;
42802;SDS011;28447;48.682;9.022;2023-03-31T20:43:52;6.43;;;2.23;;
42802;SDS011;28447;48.682;9.022;2023-03-31T20:46:18;4.63;;;1.90;;
42802;SDS011;28447;48.682;9.022;2023-03-31T20:48:48;2.20;;;1.63;;
42802;SDS011;28447;48.682;9.022;2023-03-31T20:51:17;4.50;;;1.70;;
42802;SDS011;28447;48.682;9.022;2023-03-31T20:53:47;3.93;;;1.70;;
42802;SDS011;28447;48.682;9.022;2023-03-31T20:56:16;6.40;;;1.90;;
42802;SDS011;28447;48.682;9.022;2023-03-31T20:58:50;6.23;;;2.13;;
42802;SDS011;28447;48.682;9.022;2023-03-31T21:01:18;4.37;;;1.73;;
42802;SDS011;28447;48.682;9.022;2023-03-31T21:03:44;3.50;;;1.50;;
42802;SDS011;28447;48.682;9.022;2023-03-31T21:06:11;6.13;;;1.80;;
42802;SDS011;28447;48.682;9.022;2023-03-31T21:08:40;3.13;;;1.87;;
42802;SDS011;28447;48.682;9.022;2023-03-31T21:11:09;2.73;;;1.50;;
42802;SDS011;28447;48.682;9.022;2023-03-31T21:13:35;3.50;;;1.73;;
42802;SDS011;28447;48.682;9.022;2023-03-31T21:16:01;4.23;;;1.90;;
42802;SDS011;28447;48.682;9.022;2023-03-31T21:18:28;6.40;;;1.70;;
42802;SDS011;28447;48.682;9.022;2023-03-31T21:20:58;4.67;;;1.80;;
42802;SDS011;28447;48.682;9.022;2023-03-31T21:23:44;4.47;;;1.93;;
42802;SDS011;28447;48.682;9.022;2023-03-31T21:26:12;5.97;;;1.80;;
42802;SDS011;28447;48.682;9.022;2023-03-31T21:28:39;3.30;;;1.63;;
42802;SDS011;28447;48.682;9.022;2023-03-31T21:31:09;3.33;;;1.53;;